createdAt,value
2023-08-03T00:01:41.453Z,71.36
2023-08-03T00:04:44.525Z,71.58
2023-08-03T00:07:50.673Z,71.97
2023-08-03T00:10:52.941Z,72.33
2023-08-03T00:13:55.214Z,72.55
2023-08-03T00:16:57.526Z,72.48
2023-08-03T00:20:01.970Z,73.07
2023-08-03T00:23:04.315Z,73.19
2023-08-03T00:26:06.622Z,73.84
2023-08-03T00:29:08.987Z,73.82
2023-08-03T00:32:11.334Z,73.38
2023-08-03T00:35:13.682Z,73.96
2023-08-03T00:38:16.043Z,74.32
2023-08-03T00:41:18.353Z,74.36
2023-08-03T00:44:20.779Z,74.40
2023-08-03T00:47:23.323Z,74.45
2023-08-03T00:50:27.264Z,74.80
2023-08-03T00:53:31.165Z,75.06
2023-08-03T00:56:33.733Z,75.11
2023-08-03T00:59:36.647Z,75.84
2023-08-03T01:02:39.035Z,75.95
2023-08-03T01:05:41.441Z,76.02
2023-08-03T01:08:43.896Z,76.40
2023-08-03T01:11:47.280Z,76.23
2023-08-03T01:14:49.841Z,76.00
2023-08-03T01:17:52.331Z,76.26
2023-08-03T01:20:55.191Z,76.78
2023-08-03T01:23:59.207Z,76.38
2023-08-03T01:27:03.168Z,77.23
2023-08-03T01:30:06.414Z,76.84
2023-08-03T01:33:08.954Z,76.43
2023-08-03T01:36:12.116Z,76.90
2023-08-03T01:39:14.652Z,77.81
2023-08-03T01:42:16.946Z,77.48
2023-08-03T01:45:21.203Z,77.70
2023-08-03T01:48:23.566Z,77.06
2023-08-03T01:51:25.904Z,77.54
2023-08-03T01:54:28.435Z,77.91
2023-08-03T01:57:30.713Z,77.66
2023-08-03T02:00:33.089Z,77.89
2023-08-03T02:03:36.444Z,78.74
2023-08-03T02:06:39.605Z,78.04
2023-08-03T02:09:42.025Z,77.95
2023-08-03T02:12:44.436Z,78.32
2023-08-03T02:15:47.551Z,79.04
2023-08-03T02:18:50.360Z,79.20
2023-08-03T02:21:52.727Z,78.62
2023-08-03T02:24:55.052Z,79.14
2023-08-03T02:27:57.507Z,79.11
2023-08-03T02:30:59.926Z,79.21
2023-08-03T02:34:10.791Z,79.79
2023-08-03T02:37:17.944Z,79.41
2023-08-03T02:40:22.441Z,79.80
2023-08-03T02:43:27.535Z,79.96
2023-08-03T02:46:31.761Z,80.02
2023-08-03T02:49:35.008Z,80.88
2023-08-03T02:52:41.069Z,80.40
2023-08-03T02:55:43.608Z,80.87
2023-08-03T02:58:46.914Z,80.47
2023-08-03T03:01:58.587Z,80.77
2023-08-03T03:05:07.309Z,80.93
2023-08-03T03:08:12.292Z,81.26
2023-08-03T03:11:14.837Z,80.15
2023-08-03T03:14:17.275Z,79.49
2023-08-03T03:17:19.840Z,79.67
2023-08-03T03:20:24.456Z,80.49
2023-08-03T03:23:26.907Z,80.42
2023-08-03T03:26:29.280Z,80.66
2023-08-03T03:29:31.703Z,80.75
2023-08-03T03:32:34.250Z,81.06
2023-08-03T03:35:36.838Z,80.74
2023-08-03T03:38:39.364Z,81.35
2023-08-03T03:41:41.741Z,81.26
2023-08-03T03:44:44.268Z,80.96
2023-08-03T03:47:46.826Z,81.11
2023-08-03T03:50:49.239Z,81.03
2023-08-03T03:53:53.968Z,80.74
2023-08-03T03:56:56.517Z,80.98
2023-08-03T04:00:06.066Z,80.48
2023-08-03T04:03:17.055Z,79.78
2023-08-03T04:06:19.628Z,79.21
2023-08-03T04:09:22.338Z,79.57
2023-08-03T04:12:24.684Z,80.18
2023-08-03T04:15:27.066Z,80.46
2023-08-03T04:18:29.519Z,79.28
2023-08-03T04:21:32.639Z,78.85
2023-08-03T04:24:35.038Z,78.64
2023-08-03T04:27:38.192Z,79.39
2023-08-03T04:30:42.540Z,79.08
2023-08-03T04:33:46.817Z,79.77
2023-08-03T04:36:49.335Z,79.80
2023-08-03T04:39:51.946Z,79.37
2023-08-03T04:42:54.579Z,78.60
2023-08-03T04:45:57.511Z,78.27
2023-08-03T04:49:00.202Z,77.64
2023-08-03T04:52:05.729Z,77.57
2023-08-03T04:55:08.625Z,76.41
2023-08-03T04:58:11.159Z,74.67
2023-08-03T05:01:15.863Z,72.61
2023-08-03T05:04:18.693Z,69.79
2023-08-03T05:07:22.187Z,68.37
2023-08-03T05:10:24.670Z,67.67
2023-08-03T05:13:27.251Z,66.55
2023-08-03T05:16:29.963Z,66.99
2023-08-03T05:19:33.094Z,65.38
2023-08-03T05:22:35.389Z,64.80
2023-08-03T05:25:37.720Z,63.86
2023-08-03T05:28:40.109Z,64.75
2023-08-03T05:31:42.891Z,65.26
2023-08-03T05:34:45.621Z,63.99
2023-08-03T05:37:48.036Z,63.99
2023-08-03T05:40:51.905Z,62.75
2023-08-03T05:43:54.586Z,61.99
2023-08-03T05:46:57.070Z,61.77
2023-08-03T05:49:59.444Z,61.57
2023-08-03T05:53:05.194Z,62.24
2023-08-03T05:56:12.811Z,63.14
2023-08-03T05:59:23.127Z,61.45
2023-08-03T06:02:36.261Z,60.81
2023-08-03T06:05:46.698Z,61.39
2023-08-03T06:08:52.151Z,61.68
2023-08-03T06:11:54.522Z,60.21
2023-08-03T06:14:56.910Z,58.64
2023-08-03T06:18:04.591Z,57.94
2023-08-03T06:21:07.068Z,57.78
2023-08-03T06:24:09.364Z,57.18
2023-08-03T06:27:13.090Z,57.44
2023-08-03T06:30:15.800Z,58.42
2023-08-03T06:33:25.121Z,56.27
2023-08-03T06:36:28.664Z,55.32
2023-08-03T06:39:31.001Z,55.52
2023-08-03T06:42:33.299Z,53.22
2023-08-03T06:45:36.302Z,57.41
2023-08-03T06:48:41.641Z,59.91
2023-08-03T06:51:44.524Z,59.40
2023-08-03T06:54:47.493Z,60.68
2023-08-03T06:57:50.206Z,60.67
2023-08-03T07:00:54.860Z,61.33
2023-08-03T07:03:57.316Z,62.13
2023-08-03T07:06:59.701Z,62.27
2023-08-03T07:10:02.118Z,63.47
2023-08-03T07:13:05.637Z,62.73
2023-08-03T07:16:11.191Z,63.15
2023-08-03T07:19:14.394Z,61.78
2023-08-03T07:22:16.837Z,62.82
2023-08-03T07:25:19.175Z,63.03
2023-08-03T07:28:21.620Z,64.05
2023-08-03T07:31:25.668Z,64.39
2023-08-03T07:34:28.020Z,64.11
2023-08-03T07:37:30.281Z,64.31
2023-08-03T07:40:32.576Z,65.61
2023-08-03T07:43:34.860Z,66.69
2023-08-03T07:46:37.489Z,66.11
2023-08-03T07:49:39.870Z,66.78
2023-08-03T07:52:42.252Z,67.60
2023-08-03T07:55:47.560Z,66.67
2023-08-03T07:58:52.614Z,65.93
2023-08-03T08:01:54.991Z,66.36
2023-08-03T08:04:57.363Z,65.12
2023-08-03T08:07:59.781Z,64.46
2023-08-03T08:11:11.012Z,66.02
2023-08-03T08:14:15.139Z,67.76
2023-08-03T08:17:17.640Z,68.06
2023-08-03T08:20:20.186Z,68.16
2023-08-03T08:23:23.234Z,68.29
2023-08-03T08:26:26.818Z,69.50
2023-08-03T08:29:29.236Z,66.23
2023-08-03T08:32:31.833Z,66.13
2023-08-03T08:35:34.356Z,57.87
2023-08-03T08:38:36.673Z,52.36
2023-08-03T08:41:43.010Z,50.31
2023-08-03T08:44:45.859Z,51.55
2023-08-03T08:47:48.745Z,49.47
2023-08-03T08:57:08.390Z,58.16
2023-08-03T09:00:12.702Z,55.04
2023-08-03T09:03:16.977Z,56.08
2023-08-03T09:09:29.323Z,50.24
2023-08-03T09:12:31.938Z,48.39
2023-08-03T09:15:43.877Z,55.43
2023-08-03T09:18:46.368Z,55.40
2023-08-03T09:25:09.970Z,51.85
2023-08-03T09:34:49.526Z,51.05
2023-08-03T09:37:54.442Z,51.13
2023-08-03T09:40:47.459Z,50.77
2023-08-03T09:40:56.834Z,50.13
2023-08-03T09:44:00.209Z,50.90
2023-08-03T09:47:03.339Z,52.57
2023-08-03T09:50:05.918Z,50.75
2023-08-03T09:53:16.810Z,48.94
2023-08-03T09:56:26.110Z,49.06
2023-08-03T09:59:34.045Z,47.22
2023-08-03T10:02:44.508Z,45.87
2023-08-03T10:06:00.716Z,45.21
2023-08-03T10:09:05.450Z,46.63
2023-08-03T10:12:13.847Z,46.05
2023-08-03T10:15:18.177Z,46.40
2023-08-03T10:18:38.353Z,46.41
2023-08-03T10:21:44.700Z,44.43
2023-08-03T10:25:17.310Z,47.64
2023-08-03T10:28:21.173Z,47.09
2023-08-03T10:31:23.554Z,45.89
2023-08-03T10:34:30.465Z,44.48
2023-08-03T10:37:32.793Z,45.14
2023-08-03T10:40:35.119Z,44.47
2023-08-03T10:43:37.631Z,43.26
2023-08-03T10:46:50.710Z,44.60
2023-08-03T10:49:54.911Z,40.98
2023-08-03T10:52:57.270Z,42.79
2023-08-03T10:56:11.911Z,41.01
2023-08-03T10:59:14.433Z,41.67
2023-08-03T11:02:23.514Z,42.32
2023-08-03T11:05:26.104Z,42.08
2023-08-03T11:08:28.575Z,39.78
2023-08-03T11:11:34.142Z,40.10
2023-08-03T11:14:37.012Z,40.97
2023-08-03T11:17:43.484Z,41.26
2023-08-03T11:20:49.639Z,40.29
2023-08-03T11:23:52.462Z,41.80
2023-08-03T11:26:55.009Z,41.43
2023-08-03T11:30:00.810Z,42.57
2023-08-03T11:33:03.224Z,44.61
2023-08-03T11:36:05.994Z,45.40
2023-08-03T11:39:08.794Z,46.67
2023-08-03T11:42:12.049Z,47.86
2023-08-03T11:45:14.388Z,47.08
2023-08-03T11:48:20.678Z,46.50
2023-08-03T11:51:34.642Z,46.70
2023-08-03T11:54:39.354Z,46.86
2023-08-03T11:58:00.196Z,43.03
2023-08-03T12:01:05.964Z,42.29
2023-08-03T12:10:19.751Z,34.70
2023-08-03T12:13:22.202Z,34.34
2023-08-03T12:16:24.666Z,33.23
2023-08-03T12:19:35.224Z,34.03
2023-08-03T12:22:38.201Z,33.33
2023-08-03T12:25:42.558Z,32.97
2023-08-03T12:28:45.126Z,33.16
2023-08-03T12:31:47.751Z,34.19
2023-08-03T12:34:50.565Z,35.99
2023-08-03T12:37:57.992Z,37.82
2023-08-03T12:41:01.369Z,38.18
2023-08-03T12:44:03.831Z,38.67
2023-08-03T12:47:09.122Z,39.16
2023-08-03T12:50:12.512Z,40.67
2023-08-03T12:53:15.437Z,42.45
2023-08-03T12:56:19.237Z,41.50
2023-08-03T12:59:24.559Z,42.16
2023-08-03T13:02:30.241Z,42.15
2023-08-03T13:05:34.055Z,42.75
2023-08-03T13:08:36.480Z,44.16
2023-08-03T13:11:38.831Z,40.88
2023-08-03T13:14:41.609Z,40.70
2023-08-03T13:17:44.037Z,39.24
2023-08-03T13:20:49.369Z,39.42
2023-08-03T13:23:52.483Z,38.75
2023-08-03T13:27:12.530Z,38.78
2023-08-03T13:30:15.644Z,39.46
2023-08-03T13:33:18.058Z,41.33
2023-08-03T13:36:20.686Z,42.28
2023-08-03T13:39:23.099Z,42.04
2023-08-03T13:42:25.448Z,40.79
2023-08-03T13:45:27.735Z,42.34
2023-08-03T13:48:30.214Z,42.60
2023-08-03T13:51:32.598Z,43.06
2023-08-03T13:54:34.885Z,42.40
2023-08-03T13:57:41.849Z,42.62
2023-08-03T14:00:47.268Z,42.43
2023-08-03T14:03:49.903Z,42.57
2023-08-03T14:13:03.380Z,43.02
2023-08-03T14:19:16.869Z,43.24
2023-08-03T14:22:19.222Z,43.27
2023-08-03T14:31:32.809Z,43.59
2023-08-03T14:37:41.134Z,43.28
2023-08-03T14:40:48.522Z,43.00
2023-08-03T14:43:51.590Z,43.81
2023-08-03T14:47:00.720Z,43.33
2023-08-03T14:53:09.777Z,44.65
2023-08-03T14:59:17.377Z,44.56
2023-08-03T15:02:20.739Z,44.72
2023-08-03T15:05:23.622Z,44.45
2023-08-03T15:08:26.150Z,44.73
2023-08-03T15:11:28.657Z,45.27
2023-08-03T15:14:31.219Z,45.40
2023-08-03T15:17:38.192Z,45.63
2023-08-03T15:20:42.922Z,45.16
2023-08-03T15:23:48.055Z,45.79
2023-08-03T15:26:56.151Z,46.35
2023-08-03T15:30:01.012Z,46.24
2023-08-03T15:36:12.820Z,46.78
2023-08-03T15:39:19.065Z,46.14
2023-08-03T15:42:26.502Z,46.26
2023-08-03T15:45:35.742Z,45.75
2023-08-03T15:51:47.835Z,46.49
2023-08-03T15:54:57.446Z,46.25
2023-08-03T15:58:16.175Z,45.81
2023-08-03T16:01:18.767Z,46.20
2023-08-03T16:04:21.326Z,46.54
2023-08-03T16:07:23.765Z,46.80
2023-08-03T16:10:26.157Z,47.00
2023-08-03T16:13:32.579Z,47.32
2023-08-03T16:16:35.050Z,47.00
2023-08-03T16:19:39.902Z,46.89
2023-08-03T16:22:42.389Z,47.27
2023-08-03T16:25:44.711Z,45.97
2023-08-03T16:28:47.105Z,46.21
2023-08-03T16:34:56.779Z,46.02
2023-08-03T16:38:01.248Z,46.79
2023-08-03T16:41:06.561Z,46.97
2023-08-03T16:44:09.014Z,46.97
2023-08-03T16:47:11.997Z,47.35
2023-08-03T16:50:14.531Z,47.52
2023-08-03T16:53:16.831Z,48.72
2023-08-03T16:56:19.177Z,49.14
2023-08-03T16:59:21.588Z,49.23
2023-08-03T17:02:23.864Z,48.68
2023-08-03T17:05:26.856Z,48.94
2023-08-03T17:08:29.239Z,49.17
2023-08-03T17:11:34.370Z,48.55
2023-08-03T17:14:37.936Z,48.68
2023-08-03T17:17:40.320Z,50.79
2023-08-03T17:20:42.719Z,51.56
2023-08-03T17:23:45.117Z,52.14
2023-08-03T17:26:49.486Z,57.38
2023-08-03T17:29:51.897Z,61.07
2023-08-03T17:32:54.644Z,62.81
2023-08-03T17:35:57.289Z,70.22
2023-08-03T17:39:00.085Z,73.22
2023-08-03T17:42:02.439Z,74.83
2023-08-03T17:45:05.185Z,77.79
2023-08-03T17:48:07.609Z,78.15
2023-08-03T17:51:12.381Z,77.64
2023-08-03T17:54:14.742Z,81.30
2023-08-03T17:57:17.075Z,87.36
2023-08-03T18:00:19.608Z,88.51
2023-08-03T18:03:22.074Z,89.10
2023-08-03T18:06:26.646Z,90.61
2023-08-03T18:09:29.858Z,87.13
2023-08-03T18:12:32.543Z,85.91
2023-08-03T18:15:36.249Z,88.42
2023-08-03T18:18:40.834Z,90.64
2023-08-03T18:21:43.419Z,91.33
2023-08-03T18:24:49.143Z,92.11
2023-08-03T18:27:51.614Z,83.02
2023-08-03T18:31:20.577Z,81.51
2023-08-03T18:34:22.988Z,85.94
2023-08-03T18:37:25.514Z,83.29
2023-08-03T18:40:30.043Z,85.14
2023-08-03T18:43:34.218Z,82.97
2023-08-03T18:46:37.189Z,82.15
2023-08-03T18:49:39.528Z,81.21
2023-08-03T18:52:41.865Z,84.51
2023-08-03T18:55:44.332Z,85.13
2023-08-03T18:58:48.849Z,85.79
2023-08-03T19:01:51.373Z,84.05
2023-08-03T19:04:53.789Z,84.75
2023-08-03T19:07:56.054Z,85.29
2023-08-03T19:10:59.782Z,85.13
2023-08-03T19:14:03.230Z,84.06
2023-08-03T19:17:08.093Z,86.53
2023-08-03T19:20:13.819Z,86.75
2023-08-03T19:23:16.867Z,84.99
2023-08-03T19:26:19.739Z,88.10
2023-08-03T19:29:23.638Z,87.00
2023-08-03T19:32:26.541Z,87.98
2023-08-03T19:35:29.588Z,89.12
2023-08-03T19:38:33.798Z,92.36
2023-08-03T19:41:36.237Z,91.81
2023-08-03T19:44:38.530Z,95.44
2023-08-03T19:47:40.922Z,96.73
2023-08-03T19:53:48.442Z,95.49
2023-08-03T19:56:52.854Z,93.69
2023-08-03T20:09:11.311Z,100.00
2023-08-03T20:12:13.756Z,100.00
2023-08-03T20:15:17.078Z,100.00
2023-08-03T20:18:22.518Z,100.00
2023-08-03T20:21:24.972Z,100.00
2023-08-03T20:24:27.364Z,99.74
2023-08-03T20:27:29.828Z,100.00
2023-08-03T20:30:32.181Z,100.00
2023-08-03T20:33:34.552Z,100.00
2023-08-03T20:36:38.065Z,100.00
2023-08-03T20:39:40.795Z,100.00
2023-08-03T20:42:43.209Z,100.00
2023-08-03T20:45:49.648Z,100.00
2023-08-03T20:48:52.722Z,100.00
2023-08-03T20:51:55.151Z,100.00
2023-08-03T20:54:57.902Z,100.00
2023-08-03T20:58:00.943Z,100.00
2023-08-03T21:01:03.377Z,100.00
2023-08-03T21:04:05.981Z,100.00
2023-08-03T21:07:08.423Z,100.00
2023-08-03T21:13:16.428Z,100.00
2023-08-03T21:16:18.935Z,100.00
2023-08-03T21:19:23.304Z,100.00
2023-08-03T21:22:25.679Z,99.01
2023-08-03T21:25:28.032Z,98.92
2023-08-03T21:28:30.370Z,97.81
2023-08-03T21:31:38.291Z,98.00
2023-08-03T21:34:41.744Z,98.31
2023-08-03T21:37:46.065Z,97.83
2023-08-03T21:40:49.296Z,96.83
2023-08-03T21:43:51.810Z,95.12
2023-08-03T21:46:54.241Z,95.47
2023-08-03T21:49:57.992Z,93.74
2023-08-03T21:53:00.298Z,93.22
2023-08-03T21:56:02.707Z,92.60
2023-08-03T21:59:05.128Z,93.08
2023-08-03T22:02:08.343Z,93.25
2023-08-03T22:05:12.537Z,95.43
2023-08-03T22:08:15.196Z,97.37
2023-08-03T22:11:19.413Z,99.16
2023-08-03T22:14:21.877Z,94.27
2023-08-03T22:17:24.191Z,97.07
2023-08-03T22:20:26.549Z,100.00
2023-08-03T22:23:28.972Z,100.00
2023-08-03T22:26:31.336Z,100.00
2023-08-03T22:29:33.753Z,100.00
2023-08-03T22:32:36.224Z,100.00
2023-08-03T22:35:38.632Z,100.00
2023-08-03T22:38:45.907Z,100.00
2023-08-03T22:41:48.564Z,100.00
2023-08-03T22:44:51.219Z,100.00
2023-08-03T22:51:16.803Z,100.00
2023-08-03T22:54:19.323Z,100.00
2023-08-03T22:57:22.015Z,100.00
2023-08-03T23:00:24.400Z,100.00
2023-08-03T23:03:28.848Z,100.00
2023-08-03T23:06:31.290Z,100.00
2023-08-03T23:09:34.169Z,100.00
2023-08-03T23:12:38.168Z,100.00
2023-08-03T23:15:40.909Z,100.00
2023-08-03T23:18:43.198Z,100.00
2023-08-03T23:21:45.639Z,100.00
2023-08-03T23:24:48.907Z,100.00
2023-08-03T23:27:51.212Z,100.00
2023-08-03T23:30:53.541Z,100.00
2023-08-03T23:33:55.872Z,100.00
2023-08-03T23:36:58.380Z,100.00
2023-08-03T23:40:00.698Z,100.00
2023-08-03T23:43:03.032Z,100.00
2023-08-03T23:46:05.454Z,100.00
2023-08-03T23:49:07.760Z,100.00
2023-08-03T23:52:10.136Z,100.00
2023-08-03T23:55:12.579Z,100.00
2023-08-03T23:58:14.861Z,100.00
